Aviation Digital Data Service (ADDS)

Output produced by METARs form (0526 UTC 24 January 2019)
found at http://www.aviationweather.gov/metar/data/
 
METAR text: KOAK 240453Z 00000KT 10SM FEW200 11/03 A3033 RMK AO2 SLP268 T01110028
Conditions at: KOAK (OAKLAND , CA, US) observed 0453 UTC 24 January 2019
Temperature: 11.1°C (52°F)
Dewpoint: 2.8°C (37°F) [RH = 57%]
Pressure (altimeter): 30.33 inches Hg (1027.2 mb)
[Sea-level pressure: 1026.8 mb]
Winds: calm
Visibility: 10 or more miles (16+ km)
Ceiling: at least 12,000 feet AGL
Clouds: few clouds at 20000 feet AGL
Weather: no significant weather observed at this time

METAR text: KOAK 240353Z 00000KT 10SM FEW120 FEW200 12/03 A3033 RMK AO2 SLP271 T01220028
Conditions at: KOAK (OAKLAND , CA, US) observed 0353 UTC 24 January 2019
Temperature: 12.2°C (54°F)
Dewpoint: 2.8°C (37°F) [RH = 53%]
Pressure (altimeter): 30.33 inches Hg (1027.2 mb)
[Sea-level pressure: 1027.1 mb]
Winds: calm
Visibility: 10 or more miles (16+ km)
Ceiling: at least 12,000 feet AGL
Clouds: few clouds at 12000 feet AGL
few clouds at 20000 feet AGL
Weather: no significant weather observed at this time

METAR text: KOAK 240253Z 02007KT 10SM FEW120 FEW200 12/03 A3034 RMK AO2 SLP272 T01170033 53002
Conditions at: KOAK (OAKLAND , CA, US) observed 0253 UTC 24 January 2019
Temperature: 11.7°C (53°F)
Dewpoint: 3.3°C (38°F) [RH = 56%]
Pressure (altimeter): 30.34 inches Hg (1027.5 mb)
[Sea-level pressure: 1027.2 mb]
Winds: from the NNE (20 degrees) at 8 MPH (7 knots; 3.6 m/s)
Visibility: 10 or more miles (16+ km)
Ceiling: at least 12,000 feet AGL
Clouds: few clouds at 12000 feet AGL
few clouds at 20000 feet AGL
Weather: no significant weather observed at this time

METAR text: KOAK 240153Z 00000KT 10SM FEW120 SCT200 12/07 A3033 RMK AO2 SLP270 T01220072
Conditions at: KOAK (OAKLAND , CA, US) observed 0153 UTC 24 January 2019
Temperature: 12.2°C (54°F)
Dewpoint: 7.2°C (45°F) [RH = 71%]
Pressure (altimeter): 30.33 inches Hg (1027.2 mb)
[Sea-level pressure: 1027.0 mb]
Winds: calm
Visibility: 10 or more miles (16+ km)
Ceiling: at least 12,000 feet AGL
Clouds: few clouds at 12000 feet AGL
scattered clouds at 20000 feet AGL
Weather: no significant weather observed at this time

METAR text: KOAK 240053Z 31009KT 10SM FEW050 BKN250 13/08 A3032 RMK AO2 SLP267 T01330078
Conditions at: KOAK (OAKLAND , CA, US) observed 0053 UTC 24 January 2019
Temperature: 13.3°C (56°F)
Dewpoint: 7.8°C (46°F) [RH = 69%]
Pressure (altimeter): 30.32 inches Hg (1026.8 mb)
[Sea-level pressure: 1026.7 mb]
Winds: from the NW (310 degrees) at 10 MPH (9 knots; 4.6 m/s)
Visibility: 10 or more miles (16+ km)
Ceiling: 25000 feet AGL
Clouds: few clouds at 5000 feet AGL
broken clouds at 25000 feet AGL
Weather: no significant weather observed at this time

METAR text: KOAK 232353Z 31011KT 10SM SCT250 14/08 A3033 RMK AO2 SLP270 T01440078 10156 20100 56023
Conditions at: KOAK (OAKLAND , CA, US) observed 2353 UTC 23 January 2019
Temperature: 14.4°C (58°F)
Dewpoint: 7.8°C (46°F) [RH = 65%]
Pressure (altimeter): 30.33 inches Hg (1027.2 mb)
[Sea-level pressure: 1027.0 mb]
Winds: from the NW (310 degrees) at 13 MPH (11 knots; 5.7 m/s)
Visibility: 10 or more miles (16+ km)
Ceiling: at least 12,000 feet AGL
Clouds: scattered clouds at 25000 feet AGL
Weather: no significant weather observed at this time

METAR text: KOAK 232253Z 29007KT 10SM SCT250 16/07 A3033 RMK AO2 SLP271 T01560067
Conditions at: KOAK (OAKLAND , CA, US) observed 2253 UTC 23 January 2019
Temperature: 15.6°C (60°F)
Dewpoint: 6.7°C (44°F) [RH = 55%]
Pressure (altimeter): 30.33 inches Hg (1027.2 mb)
[Sea-level pressure: 1027.1 mb]
Winds: from the WNW (290 degrees) at 8 MPH (7 knots; 3.6 m/s)
Visibility: 10 or more miles (16+ km)
Ceiling: at least 12,000 feet AGL
Clouds: scattered clouds at 25000 feet AGL
Weather: no significant weather observed at this time

METAR text: KOAK 232153Z 28007KT 10SM SCT250 14/07 A3036 RMK AO2 SLP282 T01440072
Conditions at: KOAK (OAKLAND , CA, US) observed 2153 UTC 23 January 2019
Temperature: 14.4°C (58°F)
Dewpoint: 7.2°C (45°F) [RH = 62%]
Pressure (altimeter): 30.36 inches Hg (1028.2 mb)
[Sea-level pressure: 1028.2 mb]
Winds: from the W (280 degrees) at 8 MPH (7 knots; 3.6 m/s)
Visibility: 10 or more miles (16+ km)
Ceiling: at least 12,000 feet AGL
Clouds: scattered clouds at 25000 feet AGL
Weather: no significant weather observed at this time

METAR text: KOAK 232053Z 30010KT 10SM FEW250 14/06 A3040 RMK AO2 SLP293 T01390061 58019
Conditions at: KOAK (OAKLAND , CA, US) observed 2053 UTC 23 January 2019
Temperature: 13.9°C (57°F)
Dewpoint: 6.1°C (43°F) [RH = 59%]
Pressure (altimeter): 30.40 inches Hg (1029.5 mb)
[Sea-level pressure: 1029.3 mb]
Winds: from the WNW (300 degrees) at 12 MPH (10 knots; 5.1 m/s)
Visibility: 10 or more miles (16+ km)
Ceiling: at least 12,000 feet AGL
Clouds: few clouds at 25000 feet AGL
Weather: no significant weather observed at this time

METAR text: KOAK 231953Z 29008KT 10SM FEW250 13/07 A3043 RMK AO2 SLP303 T01330067
Conditions at: KOAK (OAKLAND , CA, US) observed 1953 UTC 23 January 2019
Temperature: 13.3°C (56°F)
Dewpoint: 6.7°C (44°F) [RH = 64%]
Pressure (altimeter): 30.43 inches Hg (1030.6 mb)
[Sea-level pressure: 1030.3 mb]
Winds: from the WNW (290 degrees) at 9 MPH (8 knots; 4.1 m/s)
Visibility: 10 or more miles (16+ km)
Ceiling: at least 12,000 feet AGL
Clouds: few clouds at 25000 feet AGL
Weather: no significant weather observed at this time

METAR text: KOAK 231853Z 30006KT 10SM FEW250 11/05 A3046 RMK AO2 SLP313 T01110050
Conditions at: KOAK (OAKLAND , CA, US) observed 1853 UTC 23 January 2019
Temperature: 11.1°C (52°F)
Dewpoint: 5.0°C (41°F) [RH = 66%]
Pressure (altimeter): 30.46 inches Hg (1031.6 mb)
[Sea-level pressure: 1031.3 mb]
Winds: from the WNW (300 degrees) at 7 MPH (6 knots; 3.1 m/s)
Visibility: 10 or more miles (16+ km)
Ceiling: at least 12,000 feet AGL
Clouds: few clouds at 25000 feet AGL
Weather: no significant weather observed at this time

METAR text: KOAK 231753Z 19004KT 10SM FEW250 09/03 A3046 RMK AO2 SLP312 T00940033 10100 20039 50004
Conditions at: KOAK (OAKLAND , CA, US) observed 1753 UTC 23 January 2019
Temperature: 9.4°C (49°F)
Dewpoint: 3.3°C (38°F) [RH = 66%]
Pressure (altimeter): 30.46 inches Hg (1031.6 mb)
[Sea-level pressure: 1031.2 mb]
Winds: from the S (190 degrees) at 5 MPH (4 knots; 2.1 m/s)
Visibility: 10 or more miles (16+ km)
Ceiling: at least 12,000 feet AGL
Clouds: few clouds at 25000 feet AGL
Weather: no significant weather observed at this time

METAR text: KOAK 231653Z 06003KT 10SM FEW250 09/04 A3046 RMK AO2 SLP314 T00890039
Conditions at: KOAK (OAKLAND , CA, US) observed 1653 UTC 23 January 2019
Temperature: 8.9°C (48°F)
Dewpoint: 3.9°C (39°F) [RH = 71%]
Pressure (altimeter): 30.46 inches Hg (1031.6 mb)
[Sea-level pressure: 1031.4 mb]
Winds: from the ENE (60 degrees) at 3 MPH (3 knots; 1.5 m/s)
Visibility: 10 or more miles (16+ km)
Ceiling: at least 12,000 feet AGL
Clouds: few clouds at 25000 feet AGL
Weather: no significant weather observed at this time

METAR text: KOAK 231553Z 13004KT 10SM FEW250 05/02 A3044 RMK AO2 SLP308 T00500022
Conditions at: KOAK (OAKLAND , CA, US) observed 1553 UTC 23 January 2019
Temperature: 5.0°C (41°F)
Dewpoint: 2.2°C (36°F) [RH = 82%]
Pressure (altimeter): 30.44 inches Hg (1030.9 mb)
[Sea-level pressure: 1030.8 mb]
Winds: from the SE (130 degrees) at 5 MPH (4 knots; 2.1 m/s)
Visibility: 10 or more miles (16+ km)
Ceiling: at least 12,000 feet AGL
Clouds: few clouds at 25000 feet AGL
Weather: no significant weather observed at this time

METAR text: KOAK 231453Z 03003KT 10SM FEW250 04/01 A3044 RMK AO2 SLP309 T00440011 53005
Conditions at: KOAK (OAKLAND , CA, US) observed 1453 UTC 23 January 2019
Temperature: 4.4°C (40°F)
Dewpoint: 1.1°C (34°F) [RH = 79%]
Pressure (altimeter): 30.44 inches Hg (1030.9 mb)
[Sea-level pressure: 1030.9 mb]
Winds: from the NNE (30 degrees) at 3 MPH (3 knots; 1.5 m/s)
Visibility: 10 or more miles (16+ km)
Ceiling: at least 12,000 feet AGL
Clouds: few clouds at 25000 feet AGL
Weather: no significant weather observed at this time

METAR text: KOAK 231353Z 05003KT 10SM CLR 04/02 A3043 RMK AO2 SLP303 T00440017
Conditions at: KOAK (OAKLAND , CA, US) observed 1353 UTC 23 January 2019
Temperature: 4.4°C (40°F)
Dewpoint: 1.7°C (35°F) [RH = 83%]
Pressure (altimeter): 30.43 inches Hg (1030.6 mb)
[Sea-level pressure: 1030.3 mb]
Winds: from the NE (50 degrees) at 3 MPH (3 knots; 1.5 m/s)
Visibility: 10 or more miles (16+ km)
Ceiling: at least 12,000 feet AGL
Clouds: sky clear below 12,000 feet AGL
Weather: no significant weather observed at this time

METAR text: KOAK 231253Z 00000KT 10SM CLR 06/02 A3043 RMK AO2 SLP304 T00560017
Conditions at: KOAK (OAKLAND , CA, US) observed 1253 UTC 23 January 2019
Temperature: 5.6°C (42°F)
Dewpoint: 1.7°C (35°F) [RH = 76%]
Pressure (altimeter): 30.43 inches Hg (1030.6 mb)
[Sea-level pressure: 1030.4 mb]
Winds: calm
Visibility: 10 or more miles (16+ km)
Ceiling: at least 12,000 feet AGL
Clouds: sky clear below 12,000 feet AGL
Weather: no significant weather observed at this time

METAR text: KOAK 231153Z 00000KT 10SM CLR 06/02 A3043 RMK AO2 SLP303 T00560022 10094 20039 58003
Conditions at: KOAK (OAKLAND , CA, US) observed 1153 UTC 23 January 2019
Temperature: 5.6°C (42°F)
Dewpoint: 2.2°C (36°F) [RH = 79%]
Pressure (altimeter): 30.43 inches Hg (1030.6 mb)
[Sea-level pressure: 1030.3 mb]
Winds: calm
Visibility: 10 or more miles (16+ km)
Ceiling: at least 12,000 feet AGL
Clouds: sky clear below 12,000 feet AGL
Weather: no significant weather observed at this time

METAR text: KOAK 231053Z 16005KT 10SM CLR 08/03 A3044 RMK AO2 SLP307 T00780028
Conditions at: KOAK (OAKLAND , CA, US) observed 1053 UTC 23 January 2019
Temperature: 7.8°C (46°F)
Dewpoint: 2.8°C (37°F) [RH = 71%]
Pressure (altimeter): 30.44 inches Hg (1030.9 mb)
[Sea-level pressure: 1030.7 mb]
Winds: from the SSE (160 degrees) at 6 MPH (5 knots; 2.6 m/s)
Visibility: 10 or more miles (16+ km)
Ceiling: at least 12,000 feet AGL
Clouds: sky clear below 12,000 feet AGL
Weather: no significant weather observed at this time

METAR text: KOAK 230953Z 00000KT 10SM CLR 07/02 A3043 RMK AO2 SLP304 T00670022
Conditions at: KOAK (OAKLAND , CA, US) observed 0953 UTC 23 January 2019
Temperature: 6.7°C (44°F)
Dewpoint: 2.2°C (36°F) [RH = 73%]
Pressure (altimeter): 30.43 inches Hg (1030.6 mb)
[Sea-level pressure: 1030.4 mb]
Winds: calm
Visibility: 10 or more miles (16+ km)
Ceiling: at least 12,000 feet AGL
Clouds: sky clear below 12,000 feet AGL
Weather: no significant weather observed at this time

METAR text: KOAK 230853Z 04004KT 10SM CLR 06/02 A3044 RMK AO2 SLP306 T00610022 50007
Conditions at: KOAK (OAKLAND , CA, US) observed 0853 UTC 23 January 2019
Temperature: 6.1°C (43°F)
Dewpoint: 2.2°C (36°F) [RH = 76%]
Pressure (altimeter): 30.44 inches Hg (1030.9 mb)
[Sea-level pressure: 1030.6 mb]
Winds: from the NE (40 degrees) at 5 MPH (4 knots; 2.1 m/s)
Visibility: 10 or more miles (16+ km)
Ceiling: at least 12,000 feet AGL
Clouds: sky clear below 12,000 feet AGL
Weather: no significant weather observed at this time

METAR text: KOAK 230753Z 00000KT 10SM FEW200 07/02 A3044 RMK AO2 SLP307 T00720022 401440044
Conditions at: KOAK (OAKLAND , CA, US) observed 0753 UTC 23 January 2019
Temperature: 7.2°C (45°F)
Dewpoint: 2.2°C (36°F) [RH = 70%]
Pressure (altimeter): 30.44 inches Hg (1030.9 mb)
[Sea-level pressure: 1030.7 mb]
Winds: calm
Visibility: 10 or more miles (16+ km)
Ceiling: at least 12,000 feet AGL
Clouds: few clouds at 20000 feet AGL
Weather: no significant weather observed at this time

METAR text: KOAK 230653Z 00000KT 10SM FEW200 09/02 A3043 RMK AO2 SLP303 T00940022
Conditions at: KOAK (OAKLAND , CA, US) observed 0653 UTC 23 January 2019
Temperature: 9.4°C (49°F)
Dewpoint: 2.2°C (36°F) [RH = 61%]
Pressure (altimeter): 30.43 inches Hg (1030.6 mb)
[Sea-level pressure: 1030.3 mb]
Winds: calm
Visibility: 10 or more miles (16+ km)
Ceiling: at least 12,000 feet AGL
Clouds: few clouds at 20000 feet AGL
Weather: no significant weather observed at this time

METAR text: KOAK 230553Z 05004KT 10SM FEW200 08/02 A3042 RMK AO2 SLP298 T00830022 10144 20078 50007
Conditions at: KOAK (OAKLAND , CA, US) observed 0553 UTC 23 January 2019
Temperature: 8.3°C (47°F)
Dewpoint: 2.2°C (36°F) [RH = 65%]
Pressure (altimeter): 30.42 inches Hg (1030.2 mb)
[Sea-level pressure: 1029.8 mb]
Winds: from the NE (50 degrees) at 5 MPH (4 knots; 2.1 m/s)
Visibility: 10 or more miles (16+ km)
Ceiling: at least 12,000 feet AGL
Clouds: few clouds at 20000 feet AGL
Weather: no significant weather observed at this time

METAR text: KOAK 230453Z 08004KT 10SM FEW200 09/03 A3042 RMK AO2 SLP299 T00890033
Conditions at: KOAK (OAKLAND , CA, US) observed 0453 UTC 23 January 2019
Temperature: 8.9°C (48°F)
Dewpoint: 3.3°C (38°F) [RH = 68%]
Pressure (altimeter): 30.42 inches Hg (1030.2 mb)
[Sea-level pressure: 1029.9 mb]
Winds: from the E (80 degrees) at 5 MPH (4 knots; 2.1 m/s)
Visibility: 10 or more miles (16+ km)
Ceiling: at least 12,000 feet AGL
Clouds: few clouds at 20000 feet AGL
Weather: no significant weather observed at this time

METAR text: KOAK 230353Z 00000KT 10SM FEW200 12/02 A3041 RMK AO2 SLP297 T01170017
Conditions at: KOAK (OAKLAND , CA, US) observed 0353 UTC 23 January 2019
Temperature: 11.7°C (53°F)
Dewpoint: 1.7°C (35°F) [RH = 50%]
Pressure (altimeter): 30.41 inches Hg (1029.9 mb)
[Sea-level pressure: 1029.7 mb]
Winds: calm
Visibility: 10 or more miles (16+ km)
Ceiling: at least 12,000 feet AGL
Clouds: few clouds at 20000 feet AGL
Weather: no significant weather observed at this time

METAR text: KOAK 230253Z VRB03KT 10SM FEW200 11/05 A3039 RMK AO2 SLP291 T01110050 53002
Conditions at: KOAK (OAKLAND , CA, US) observed 0253 UTC 23 January 2019
Temperature: 11.1°C (52°F)
Dewpoint: 5.0°C (41°F) [RH = 66%]
Pressure (altimeter): 30.39 inches Hg (1029.2 mb)
[Sea-level pressure: 1029.1 mb]
Winds: variable direction winds at 3 MPH (3 knots; 1.5 m/s)
Visibility: 10 or more miles (16+ km)
Ceiling: at least 12,000 feet AGL
Clouds: few clouds at 20000 feet AGL
Weather: no significant weather observed at this time

METAR text: KOAK 230153Z 26005KT 10SM SCT200 13/03 A3039 RMK AO2 SLP289 T01280033
Conditions at: KOAK (OAKLAND , CA, US) observed 0153 UTC 23 January 2019
Temperature: 12.8°C (55°F)
Dewpoint: 3.3°C (38°F) [RH = 52%]
Pressure (altimeter): 30.39 inches Hg (1029.2 mb)
[Sea-level pressure: 1028.9 mb]
Winds: from the W (260 degrees) at 6 MPH (5 knots; 2.6 m/s)
Visibility: 10 or more miles (16+ km)
Ceiling: at least 12,000 feet AGL
Clouds: scattered clouds at 20000 feet AGL
Weather: no significant weather observed at this time

METAR text: KOAK 230053Z 00000KT 10SM SCT200 14/02 A3038 RMK AO2 SLP288 T01440022
Conditions at: KOAK (OAKLAND , CA, US) observed 0053 UTC 23 January 2019
Temperature: 14.4°C (58°F)
Dewpoint: 2.2°C (36°F) [RH = 44%]
Pressure (altimeter): 30.38 inches Hg (1028.9 mb)
[Sea-level pressure: 1028.8 mb]
Winds: calm
Visibility: 10 or more miles (16+ km)
Ceiling: at least 12,000 feet AGL
Clouds: scattered clouds at 20000 feet AGL
Weather: no significant weather observed at this time

METAR text: KOAK 222353Z 23007KT 10SM SCT200 14/M01 A3039 RMK AO2 SLP289 T01441006 10144 20111 55004
Conditions at: KOAK (OAKLAND , CA, US) observed 2353 UTC 22 January 2019
Temperature: 14.4°C (58°F)
Dewpoint: -0.6°C (31°F) [RH = 36%]
Pressure (altimeter): 30.39 inches Hg (1029.2 mb)
[Sea-level pressure: 1028.9 mb]
Winds: from the SW (230 degrees) at 8 MPH (7 knots; 3.6 m/s)
Visibility: 10 or more miles (16+ km)
Ceiling: at least 12,000 feet AGL
Clouds: scattered clouds at 20000 feet AGL
Weather: no significant weather observed at this time

METAR text: KOAK 222253Z 20008KT 10SM SCT200 14/03 A3037 RMK AO2 SLP285 T01440033
Conditions at: KOAK (OAKLAND , CA, US) observed 2253 UTC 22 January 2019
Temperature: 14.4°C (58°F)
Dewpoint: 3.3°C (38°F) [RH = 47%]
Pressure (altimeter): 30.37 inches Hg (1028.5 mb)
[Sea-level pressure: 1028.5 mb]
Winds: from the SSW (200 degrees) at 9 MPH (8 knots; 4.1 m/s)
Visibility: 10 or more miles (16+ km)
Ceiling: at least 12,000 feet AGL
Clouds: scattered clouds at 20000 feet AGL
Weather: no significant weather observed at this time

METAR text: KOAK 222153Z 23007KT 10SM BKN200 14/02 A3038 RMK AO2 SLP287 T01390022
Conditions at: KOAK (OAKLAND , CA, US) observed 2153 UTC 22 January 2019
Temperature: 13.9°C (57°F)
Dewpoint: 2.2°C (36°F) [RH = 45%]
Pressure (altimeter): 30.38 inches Hg (1028.9 mb)
[Sea-level pressure: 1028.7 mb]
Winds: from the SW (230 degrees) at 8 MPH (7 knots; 3.6 m/s)
Visibility: 10 or more miles (16+ km)
Ceiling: 20000 feet AGL
Clouds: broken clouds at 20000 feet AGL
Weather: no significant weather observed at this time

METAR text: KOAK 222053Z 23007KT 10SM BKN200 13/04 A3040 RMK AO2 SLP293 T01330039 58013
Conditions at: KOAK (OAKLAND , CA, US) observed 2053 UTC 22 January 2019
Temperature: 13.3°C (56°F)
Dewpoint: 3.9°C (39°F) [RH = 53%]
Pressure (altimeter): 30.40 inches Hg (1029.5 mb)
[Sea-level pressure: 1029.3 mb]
Winds: from the SW (230 degrees) at 8 MPH (7 knots; 3.6 m/s)
Visibility: 10 or more miles (16+ km)
Ceiling: 20000 feet AGL
Clouds: broken clouds at 20000 feet AGL
Weather: no significant weather observed at this time

METAR text: KOAK 221953Z 23005KT 10SM BKN200 13/M01 A3042 RMK AO2 SLP300 T01331006
Conditions at: KOAK (OAKLAND , CA, US) observed 1953 UTC 22 January 2019
Temperature: 13.3°C (56°F)
Dewpoint: -0.6°C (31°F) [RH = 38%]
Pressure (altimeter): 30.42 inches Hg (1030.2 mb)
[Sea-level pressure: 1030.0 mb]
Winds: from the SW (230 degrees) at 6 MPH (5 knots; 2.6 m/s)
Visibility: 10 or more miles (16+ km)
Ceiling: 20000 feet AGL
Clouds: broken clouds at 20000 feet AGL
Weather: no significant weather observed at this time

METAR text: KOAK 221853Z 00000KT 10SM BKN200 13/M01 A3044 RMK AO2 SLP306 T01331006
Conditions at: KOAK (OAKLAND , CA, US) observed 1853 UTC 22 January 2019
Temperature: 13.3°C (56°F)
Dewpoint: -0.6°C (31°F) [RH = 38%]
Pressure (altimeter): 30.44 inches Hg (1030.9 mb)
[Sea-level pressure: 1030.6 mb]
Winds: calm
Visibility: 10 or more miles (16+ km)
Ceiling: 20000 feet AGL
Clouds: broken clouds at 20000 feet AGL
Weather: no significant weather observed at this time

METAR text: KOAK 221753Z 00000KT 10SM BKN200 11/04 A3043 RMK AO2 SLP305 T01110039 10111 20044 53019
Conditions at: KOAK (OAKLAND , CA, US) observed 1753 UTC 22 January 2019
Temperature: 11.1°C (52°F)
Dewpoint: 3.9°C (39°F) [RH = 61%]
Pressure (altimeter): 30.43 inches Hg (1030.6 mb)
[Sea-level pressure: 1030.5 mb]
Winds: calm
Visibility: 10 or more miles (16+ km)
Ceiling: 20000 feet AGL
Clouds: broken clouds at 20000 feet AGL
Weather: no significant weather observed at this time

Forecast for: KOAK (OAKLAND , CA, US)
Text: KOAK 240522Z 2406/2512 VRB04KT P6SM SCT200
Forecast period: 0600 to 0900 UTC 24 January 2019
Forecast type: FROM: standard forecast or significant change
Winds: variable direction winds at 5 MPH (4 knots; 2.1 m/s)
Visibility: 6 or more miles 10+ km)
Ceiling: at least 12,000 feet AGL
Clouds: scattered clouds at 20000 feet AGL
Weather: no significant weather forecast for this period
Text: FM240900 03004KT P6SM SKC
Forecast period: 0900 to 2200 UTC 24 January 2019
Forecast type: FROM: standard forecast or significant change
Winds: from the NNE (30 degrees) at 5 MPH (4 knots; 2.1 m/s)
Visibility: 6 or more miles 10+ km)
Clouds: clear skies
Weather: no significant weather forecast for this period
Text: FM242200 29008KT P6SM SKC
Forecast period: 2200 UTC 24 January 2019 to 0400 UTC 25 January 2019
Forecast type: FROM: standard forecast or significant change
Winds: from the WNW (290 degrees) at 9 MPH (8 knots; 4.1 m/s)
Visibility: 6 or more miles 10+ km)
Clouds: clear skies
Weather: no significant weather forecast for this period
Text: FM250400 VRB03KT P6SM SKC
Forecast period: 0400 to 1200 UTC 25 January 2019
Forecast type: FROM: standard forecast or significant change
Winds: variable direction winds at 3 MPH (3 knots; 1.5 m/s)
Visibility: 6 or more miles 10+ km)
Clouds: clear skies
Weather: no significant weather forecast for this period